createdAt,value
2022-11-05T00:00:36.193Z,72.93
2022-11-05T00:03:21.403Z,73.37
2022-11-05T00:06:11.129Z,73.41
2022-11-05T00:08:57.450Z,73.10
2022-11-05T00:11:43.845Z,73.66
2022-11-05T00:14:29.217Z,73.89
2022-11-05T00:16:55.681Z,72.98
2022-11-05T00:19:22.103Z,72.88
2022-11-05T00:22:07.277Z,72.63
2022-11-05T00:24:52.517Z,73.09
2022-11-05T00:27:19.038Z,72.43
2022-11-05T00:29:45.455Z,72.18
2022-11-05T00:32:11.913Z,71.14
2022-11-05T00:34:38.375Z,71.22
2022-11-05T00:37:04.823Z,70.68
2022-11-05T00:39:31.261Z,71.27
2022-11-05T00:42:16.244Z,71.37
2022-11-05T00:45:01.060Z,71.54
2022-11-05T00:47:47.578Z,71.26
2022-11-05T00:50:14.145Z,72.29
2022-11-05T00:52:55.672Z,71.99
2022-11-05T00:55:34.662Z,71.78
2022-11-05T00:58:03.365Z,71.31
2022-11-05T01:00:32.344Z,71.15
2022-11-05T01:03:06.740Z,71.31
2022-11-05T01:05:39.200Z,71.66
2022-11-05T01:08:05.711Z,72.09
2022-11-05T01:10:32.785Z,72.23
2022-11-05T01:12:59.320Z,72.22
2022-11-05T01:15:25.769Z,71.98
2022-11-05T01:17:52.551Z,72.14
2022-11-05T01:20:19.080Z,72.23
2022-11-05T01:22:45.521Z,72.02
2022-11-05T01:25:11.968Z,71.60
2022-11-05T01:27:38.523Z,71.51
2022-11-05T01:30:07.994Z,71.09
2022-11-05T01:32:36.531Z,71.85
2022-11-05T01:35:05.958Z,71.95
2022-11-05T01:37:32.578Z,71.88
2022-11-05T01:39:59.057Z,71.52
2022-11-05T01:42:28.310Z,71.35
2022-11-05T01:45:22.597Z,71.38
2022-11-05T01:48:15.253Z,71.08
2022-11-05T01:50:52.101Z,71.21
2022-11-05T01:53:53.141Z,71.69
2022-11-05T01:56:31.417Z,72.01
2022-11-05T01:59:22.446Z,71.95
2022-11-05T02:01:50.169Z,72.07
2022-11-05T02:04:29.006Z,71.96
2022-11-05T02:06:55.877Z,72.11
2022-11-05T02:09:30.070Z,71.93
2022-11-05T02:11:57.317Z,71.52
2022-11-05T02:14:23.984Z,71.67
2022-11-05T02:17:06.177Z,71.55
2022-11-05T02:20:04.421Z,72.27
2022-11-05T02:23:08.229Z,72.98
2022-11-05T02:26:29.834Z,73.06
2022-11-05T02:29:59.677Z,72.35
2022-11-05T02:32:44.302Z,72.82
2022-11-05T02:35:31.795Z,72.76
2022-11-05T02:38:02.667Z,72.55
2022-11-05T02:40:48.143Z,72.52
2022-11-05T02:43:48.243Z,72.25
2022-11-05T02:47:05.036Z,72.80
2022-11-05T02:49:47.717Z,72.77
2022-11-05T02:52:47.906Z,72.19
2022-11-05T02:55:44.959Z,72.10
2022-11-05T02:58:11.669Z,72.37
2022-11-05T03:00:40.234Z,72.67
2022-11-05T03:03:16.871Z,72.86
2022-11-05T03:06:08.827Z,73.12
2022-11-05T03:09:10.601Z,72.71
2022-11-05T03:12:27.210Z,71.90
2022-11-05T03:15:14.492Z,72.56
2022-11-05T03:18:02.919Z,71.75
2022-11-05T03:21:06.527Z,72.29
2022-11-05T03:23:59.643Z,72.55
2022-11-05T03:26:35.090Z,72.90
2022-11-05T03:29:11.342Z,72.34
2022-11-05T03:31:41.428Z,72.35
2022-11-05T03:34:12.277Z,72.24
2022-11-05T03:36:50.708Z,71.92
2022-11-05T03:39:31.188Z,71.77
2022-11-05T03:42:00.673Z,71.86
2022-11-05T03:44:38.621Z,71.67
2022-11-05T03:47:13.903Z,71.93
2022-11-05T03:49:53.766Z,71.36
2022-11-05T03:52:27.903Z,71.45
2022-11-05T03:54:54.861Z,72.01
2022-11-05T03:57:28.980Z,71.48
2022-11-05T03:59:55.437Z,71.87
2022-11-05T04:02:26.145Z,71.84
2022-11-05T04:04:54.858Z,71.59
2022-11-05T04:07:39.880Z,71.34
2022-11-05T04:10:25.126Z,72.19
2022-11-05T04:13:10.688Z,72.00
2022-11-05T04:15:55.953Z,71.94
2022-11-05T04:18:22.564Z,72.21
2022-11-05T04:21:07.420Z,72.12
2022-11-05T04:23:52.642Z,71.92
2022-11-05T04:26:23.162Z,72.29
2022-11-05T04:29:11.666Z,72.08
2022-11-05T04:31:38.733Z,72.41
2022-11-05T04:34:05.821Z,72.32
2022-11-05T04:36:32.314Z,72.13
2022-11-05T04:38:58.784Z,72.33
2022-11-05T04:41:26.446Z,72.54
2022-11-05T04:43:52.909Z,72.57
2022-11-05T04:46:19.347Z,72.22
2022-11-05T04:48:45.799Z,72.08
2022-11-05T04:51:12.230Z,71.71
2022-11-05T04:53:38.669Z,72.05
2022-11-05T04:56:18.409Z,71.42
2022-11-05T04:58:45.032Z,71.90
2022-11-05T05:01:21.312Z,71.60
2022-11-05T05:03:50.436Z,72.21
2022-11-05T05:06:17.674Z,72.04
2022-11-05T05:08:44.606Z,72.21
2022-11-05T05:11:14.002Z,72.13
2022-11-05T05:13:40.510Z,72.06
2022-11-05T05:16:09.964Z,72.23
2022-11-05T05:18:36.466Z,72.61
2022-11-05T05:21:21.463Z,72.54
2022-11-05T05:23:48.533Z,72.39
2022-11-05T05:26:18.102Z,72.35
2022-11-05T05:28:44.541Z,72.97
2022-11-05T05:31:11.141Z,72.90
2022-11-05T05:33:37.607Z,72.42
2022-11-05T05:36:08.507Z,72.37
2022-11-05T05:38:37.706Z,71.68
2022-11-05T05:41:04.474Z,71.75
2022-11-05T05:43:33.245Z,71.29
2022-11-05T05:46:10.442Z,71.10
2022-11-05T05:48:38.360Z,71.18
2022-11-05T05:51:08.894Z,70.74
2022-11-05T05:53:36.112Z,71.00
2022-11-05T05:56:03.499Z,71.33
2022-11-05T05:58:37.982Z,71.46
2022-11-05T06:01:17.182Z,71.54
2022-11-05T06:03:45.322Z,71.29
2022-11-05T06:06:19.390Z,71.62
2022-11-05T06:08:45.857Z,72.05
2022-11-05T06:11:12.398Z,71.98
2022-11-05T06:13:39.128Z,72.03
2022-11-05T06:16:09.058Z,71.52
2022-11-05T06:18:36.660Z,71.58
2022-11-05T06:21:07.080Z,71.44
2022-11-05T06:23:35.954Z,71.58
2022-11-05T06:26:05.928Z,71.32
2022-11-05T06:28:33.494Z,71.05
2022-11-05T06:31:00.701Z,70.91
2022-11-05T06:33:27.296Z,70.68
2022-11-05T06:35:54.497Z,71.22
2022-11-05T06:38:20.971Z,71.19
2022-11-05T06:40:47.442Z,71.11
2022-11-05T06:43:14.297Z,71.16
2022-11-05T06:45:40.950Z,71.19
2022-11-05T06:48:07.757Z,70.85
2022-11-05T06:50:34.192Z,70.73
2022-11-05T06:53:03.752Z,70.88
2022-11-05T06:55:31.863Z,71.12
2022-11-05T06:57:58.533Z,70.68
2022-11-05T07:00:25.714Z,70.89
2022-11-05T07:02:52.220Z,70.32
2022-11-05T07:05:18.829Z,70.07
2022-11-05T07:07:45.840Z,70.20
2022-11-05T07:10:16.233Z,70.66
2022-11-05T07:12:43.642Z,71.30
2022-11-05T07:15:12.114Z,71.31
2022-11-05T07:17:40.008Z,71.23
2022-11-05T07:20:07.758Z,71.38
2022-11-05T07:22:35.692Z,71.74
2022-11-05T07:25:03.573Z,71.31
2022-11-05T07:27:30.022Z,71.34
2022-11-05T07:29:56.650Z,71.42
2022-11-05T07:32:23.361Z,71.26
2022-11-05T07:34:49.891Z,71.17
2022-11-05T07:37:19.450Z,70.81
2022-11-05T07:39:45.904Z,71.19
2022-11-05T07:42:13.821Z,71.03
2022-11-05T07:44:40.746Z,70.99
2022-11-05T07:47:07.673Z,70.58
2022-11-05T07:49:34.161Z,70.66
2022-11-05T07:52:00.717Z,70.35
2022-11-05T07:54:27.234Z,70.88
2022-11-05T07:56:53.668Z,71.31
2022-11-05T07:59:20.196Z,71.44
2022-11-05T08:01:46.852Z,70.97
2022-11-05T08:04:13.429Z,71.22
2022-11-05T08:06:39.881Z,71.13
2022-11-05T08:09:06.377Z,71.25
2022-11-05T08:11:34.948Z,70.54
2022-11-05T08:14:01.408Z,71.16
2022-11-05T08:16:27.942Z,70.76
2022-11-05T08:18:54.404Z,70.56
2022-11-05T08:21:20.879Z,70.08
2022-11-05T08:23:47.379Z,70.13
2022-11-05T08:26:13.901Z,70.33
2022-11-05T08:28:40.436Z,70.62
2022-11-05T08:31:06.883Z,70.29
2022-11-05T08:33:34.781Z,70.13
2022-11-05T08:36:05.343Z,69.66
2022-11-05T08:38:31.989Z,70.15
2022-11-05T08:40:58.789Z,69.82
2022-11-05T08:43:25.609Z,70.13
2022-11-05T08:45:52.164Z,70.12
2022-11-05T08:48:19.325Z,69.56
2022-11-05T08:50:48.493Z,68.83
2022-11-05T08:53:16.058Z,69.80
2022-11-05T08:55:43.886Z,69.68
2022-11-05T08:58:15.282Z,69.24
2022-11-05T09:00:42.805Z,69.67
2022-11-05T09:03:10.688Z,69.72
2022-11-05T09:05:40.190Z,69.21
2022-11-05T09:08:18.447Z,69.13
2022-11-05T09:10:47.281Z,68.97
2022-11-05T09:13:19.041Z,69.12
2022-11-05T09:15:50.484Z,68.43
2022-11-05T09:18:18.529Z,68.00
2022-11-05T09:20:45.830Z,67.97
2022-11-05T09:23:15.098Z,67.98
2022-11-05T09:25:41.988Z,68.25
2022-11-05T09:28:20.148Z,68.03
2022-11-05T09:30:50.513Z,67.78
2022-11-05T09:33:20.551Z,67.24
2022-11-05T09:35:47.862Z,66.93
2022-11-05T09:38:14.811Z,67.07
2022-11-05T09:41:07.199Z,66.98
2022-11-05T09:43:48.909Z,67.25
2022-11-05T09:46:24.134Z,66.93
2022-11-05T09:49:02.161Z,67.20
2022-11-05T09:51:29.281Z,67.62
2022-11-05T09:53:59.345Z,67.68
2022-11-05T09:56:35.015Z,67.70
2022-11-05T09:59:37.284Z,67.67
2022-11-05T10:02:34.505Z,67.62
2022-11-05T10:05:10.140Z,67.76
2022-11-05T10:08:06.548Z,67.84
2022-11-05T10:10:47.326Z,68.31
2022-11-05T10:13:40.582Z,68.88
2022-11-05T10:16:16.115Z,69.18
2022-11-05T10:18:50.964Z,68.12
2022-11-05T10:21:37.679Z,67.88
2022-11-05T10:24:16.763Z,68.16
2022-11-05T10:26:47.686Z,68.72
2022-11-05T10:29:25.994Z,68.28
2022-11-05T10:31:57.122Z,67.90
2022-11-05T10:34:33.301Z,67.11
2022-11-05T10:37:00.180Z,66.72
2022-11-05T10:39:29.829Z,66.91
2022-11-05T10:42:37.843Z,66.96
2022-11-05T10:45:29.362Z,67.46
2022-11-05T10:48:43.731Z,67.58
2022-11-05T10:51:11.597Z,67.99
2022-11-05T10:53:43.568Z,67.95
2022-11-05T10:56:39.365Z,68.17
2022-11-05T10:59:24.600Z,68.16
2022-11-05T11:02:03.080Z,67.65
2022-11-05T11:04:37.413Z,68.07
2022-11-05T11:07:04.922Z,68.02
2022-11-05T11:09:36.716Z,68.00
2022-11-05T11:12:17.202Z,67.36
2022-11-05T11:15:01.809Z,66.96
2022-11-05T11:17:32.540Z,67.33
2022-11-05T11:20:28.907Z,67.50
2022-11-05T11:23:15.840Z,67.16
2022-11-05T11:25:52.776Z,67.71
2022-11-05T11:28:40.685Z,68.74
2022-11-05T11:31:15.626Z,68.60
2022-11-05T11:33:47.632Z,68.76
2022-11-05T11:36:19.973Z,68.96
2022-11-05T11:38:46.690Z,68.99
2022-11-05T11:41:39.141Z,68.56
2022-11-05T11:44:20.762Z,68.05
2022-11-05T11:46:55.025Z,68.23
2022-11-05T11:49:36.633Z,67.50
2022-11-05T11:52:13.715Z,68.67
2022-11-05T11:54:40.211Z,68.45
2022-11-05T11:57:27.857Z,67.71
2022-11-05T12:00:14.359Z,67.81
2022-11-05T12:03:20.598Z,67.28
2022-11-05T12:06:11.717Z,67.95
2022-11-05T12:09:03.614Z,67.22
2022-11-05T12:11:50.562Z,67.44
2022-11-05T12:14:46.662Z,67.21
2022-11-05T12:17:25.106Z,67.13
2022-11-05T12:20:56.934Z,66.23
2022-11-05T12:24:08.082Z,66.70
2022-11-05T12:26:43.458Z,67.21
2022-11-05T12:29:46.984Z,66.24
2022-11-05T12:32:33.183Z,66.86
2022-11-05T12:35:36.107Z,65.64
2022-11-05T12:38:18.389Z,66.39
2022-11-05T12:41:27.001Z,65.42
2022-11-05T12:44:34.767Z,65.77
2022-11-05T12:47:16.318Z,66.29
2022-11-05T12:49:59.853Z,65.51
2022-11-05T12:52:32.246Z,65.18
2022-11-05T12:55:14.149Z,64.82
2022-11-05T12:57:44.182Z,65.08
2022-11-05T13:00:27.809Z,64.82
2022-11-05T13:03:37.969Z,64.65
2022-11-05T13:06:14.832Z,64.82
2022-11-05T13:09:08.118Z,64.64
2022-11-05T13:11:56.051Z,65.24
2022-11-05T13:14:30.938Z,65.40
2022-11-05T13:17:16.061Z,65.16
2022-11-05T13:20:06.683Z,65.45
2022-11-05T13:22:42.696Z,65.47
2022-11-05T13:25:23.905Z,65.39
2022-11-05T13:28:16.879Z,64.02
2022-11-05T13:30:51.913Z,64.87
2022-11-05T13:33:25.864Z,64.13
2022-11-05T13:36:22.834Z,64.34
2022-11-05T13:39:14.853Z,64.78
2022-11-05T13:42:11.756Z,64.07
2022-11-05T13:45:13.009Z,64.68
2022-11-05T13:48:16.001Z,64.76
2022-11-05T13:51:03.608Z,64.98
2022-11-05T13:53:55.230Z,63.89
2022-11-05T13:57:19.920Z,63.90
2022-11-05T13:59:54.074Z,63.71
2022-11-05T14:02:28.116Z,63.78
2022-11-05T14:05:02.385Z,62.99
2022-11-05T14:07:37.032Z,61.70
2022-11-05T14:10:43.614Z,62.36
2022-11-05T14:13:38.070Z,61.89
2022-11-05T14:16:16.275Z,62.26
2022-11-05T14:19:18.126Z,62.05
2022-11-05T14:21:54.241Z,62.61
2022-11-05T14:24:23.724Z,62.78
2022-11-05T14:27:02.186Z,62.63
2022-11-05T14:29:47.169Z,62.47
2022-11-05T14:32:19.299Z,62.29
2022-11-05T14:35:33.482Z,62.80
2022-11-05T14:38:00.278Z,64.26
2022-11-05T14:40:36.397Z,63.78
2022-11-05T14:43:16.575Z,64.58
2022-11-05T14:46:00.744Z,64.16
2022-11-05T14:48:53.720Z,64.54
2022-11-05T14:51:33.537Z,64.11
2022-11-05T14:54:06.523Z,64.00
2022-11-05T14:56:56.382Z,63.66
2022-11-05T14:59:31.236Z,63.93
2022-11-05T15:02:16.629Z,63.90
2022-11-05T15:04:45.482Z,64.70
2022-11-05T15:07:32.605Z,64.72
2022-11-05T15:10:10.548Z,65.52
2022-11-05T15:12:45.754Z,65.48
2022-11-05T15:15:25.491Z,65.22
2022-11-05T15:18:05.918Z,65.37
2022-11-05T15:20:46.011Z,65.48
2022-11-05T15:23:19.034Z,65.93
2022-11-05T15:26:14.054Z,66.10
2022-11-05T15:28:48.471Z,66.16
2022-11-05T15:31:14.845Z,66.41
2022-11-05T15:33:44.457Z,66.89
2022-11-05T15:36:23.349Z,66.54
2022-11-05T15:39:15.254Z,66.55
2022-11-05T15:41:36.669Z,66.52
2022-11-05T15:44:03.264Z,66.92
2022-11-05T15:46:30.077Z,66.80
2022-11-05T15:49:06.908Z,67.24
2022-11-05T15:51:33.673Z,67.44
2022-11-05T15:56:56.851Z,67.19
2022-11-05T15:59:26.400Z,66.90
2022-11-05T16:02:01.932Z,67.21
2022-11-05T16:04:34.797Z,67.48
2022-11-05T16:07:11.924Z,67.39
2022-11-05T16:09:43.820Z,67.34
2022-11-05T16:12:19.349Z,67.32
2022-11-05T16:15:19.886Z,67.74
2022-11-05T16:18:00.824Z,67.83
2022-11-05T16:20:36.926Z,68.01
2022-11-05T16:23:23.162Z,68.07
2022-11-05T16:25:50.684Z,68.32
2022-11-05T16:28:27.381Z,67.62
2022-11-05T16:31:05.337Z,68.42
2022-11-05T16:33:45.613Z,68.38
2022-11-05T16:36:12.842Z,68.17
2022-11-05T16:38:39.620Z,67.99
2022-11-05T16:41:06.332Z,67.88
2022-11-05T16:43:33.444Z,67.92
2022-11-05T16:46:01.112Z,67.77
2022-11-05T16:48:28.245Z,67.49
2022-11-05T16:50:54.761Z,67.49
2022-11-05T16:53:21.274Z,67.53
2022-11-05T16:55:48.152Z,67.87
2022-11-05T16:58:21.962Z,67.64
2022-11-05T17:00:54.318Z,68.23
2022-11-05T17:03:20.781Z,68.37
2022-11-05T17:05:47.610Z,68.43
2022-11-05T17:08:14.394Z,68.74
2022-11-05T17:10:41.166Z,68.14
2022-11-05T17:13:08.781Z,68.21
2022-11-05T17:15:35.497Z,68.13
2022-11-05T17:18:04.819Z,68.78
2022-11-05T17:20:40.684Z,68.60
2022-11-05T17:23:17.274Z,68.50
2022-11-05T17:25:48.034Z,68.88
2022-11-05T17:28:16.586Z,69.23
2022-11-05T17:30:49.283Z,69.44
2022-11-05T17:33:19.275Z,69.48
2022-11-05T17:35:45.902Z,68.90
2022-11-05T17:38:13.185Z,69.29
2022-11-05T17:40:40.885Z,69.27
2022-11-05T17:43:08.926Z,69.35
2022-11-05T17:45:42.739Z,69.22
2022-11-05T17:48:10.389Z,68.95
2022-11-05T17:50:46.029Z,68.45
2022-11-05T17:53:14.615Z,68.67
2022-11-05T17:55:43.546Z,68.55
2022-11-05T17:58:10.763Z,68.78
2022-11-05T18:00:38.716Z,68.40
2022-11-05T18:03:05.813Z,69.11
2022-11-05T18:05:34.551Z,68.51
2022-11-05T18:08:01.481Z,68.94
2022-11-05T18:10:28.092Z,69.13
2022-11-05T18:12:54.729Z,69.11
2022-11-05T18:15:21.422Z,68.79
2022-11-05T18:17:47.909Z,69.15
2022-11-05T18:20:19.163Z,68.96
2022-11-05T18:22:49.376Z,68.60
2022-11-05T18:25:16.474Z,68.88
2022-11-05T18:27:43.284Z,68.96
2022-11-05T18:30:13.861Z,68.61
2022-11-05T18:32:40.300Z,69.46
2022-11-05T18:35:07.235Z,69.32
2022-11-05T18:37:33.795Z,68.90
2022-11-05T18:40:00.248Z,69.17
2022-11-05T18:42:26.729Z,69.63
2022-11-05T18:44:53.231Z,69.26
2022-11-05T18:47:19.748Z,70.10
2022-11-05T18:49:46.192Z,69.83
2022-11-05T18:52:13.120Z,70.31
2022-11-05T18:54:39.657Z,69.98
2022-11-05T18:57:06.153Z,69.55
2022-11-05T18:59:38.785Z,70.04
2022-11-05T19:02:08.412Z,69.85
2022-11-05T19:04:36.615Z,69.23
2022-11-05T19:07:05.329Z,68.97
2022-11-05T19:09:36.730Z,69.39
2022-11-05T19:12:04.077Z,69.16
2022-11-05T19:14:31.315Z,69.66
2022-11-05T19:16:59.190Z,69.60
2022-11-05T19:19:26.774Z,69.41
2022-11-05T19:21:53.471Z,69.04
2022-11-05T19:24:20.226Z,69.18
2022-11-05T19:26:47.401Z,69.48
2022-11-05T19:29:13.969Z,69.33
2022-11-05T19:31:40.496Z,69.75
2022-11-05T19:34:06.945Z,69.01
2022-11-05T19:36:33.983Z,69.43
2022-11-05T19:39:06.301Z,69.97
2022-11-05T19:41:32.991Z,69.40
2022-11-05T19:44:01.459Z,69.48
2022-11-05T19:46:29.587Z,69.21
2022-11-05T19:48:56.171Z,69.25
2022-11-05T19:51:29.239Z,69.56
2022-11-05T19:53:56.215Z,69.24
2022-11-05T19:56:27.081Z,69.06
2022-11-05T19:58:54.418Z,68.91
2022-11-05T20:01:24.534Z,69.10
2022-11-05T20:03:52.124Z,69.78
2022-11-05T20:06:30.660Z,69.68
2022-11-05T20:11:48.219Z,69.54
2022-11-05T20:14:14.654Z,69.71
2022-11-05T20:16:42.889Z,69.41
2022-11-05T20:19:13.748Z,69.51
2022-11-05T20:21:40.840Z,69.86
2022-11-05T20:24:08.104Z,70.21
2022-11-05T20:26:35.134Z,70.09
2022-11-05T20:29:01.825Z,69.46
2022-11-05T20:31:29.031Z,69.17
2022-11-05T20:33:56.296Z,68.85
2022-11-05T20:36:25.402Z,69.16
2022-11-05T20:38:56.355Z,69.25
2022-11-05T20:41:23.188Z,69.43
2022-11-05T20:43:49.992Z,69.27
2022-11-05T20:46:19.986Z,69.40
2022-11-05T20:48:46.664Z,68.88
2022-11-05T20:51:18.080Z,68.53
2022-11-05T20:53:46.077Z,68.90
2022-11-05T20:56:25.956Z,68.71
2022-11-05T20:58:53.505Z,69.38
2022-11-05T21:01:20.177Z,69.73
2022-11-05T21:03:47.969Z,69.15
2022-11-05T21:06:15.690Z,69.56
2022-11-05T21:08:43.514Z,69.31
2022-11-05T21:11:10.668Z,69.05
2022-11-05T21:13:37.617Z,69.43
2022-11-05T21:16:07.766Z,68.97
2022-11-05T21:18:39.042Z,69.13
2022-11-05T21:21:12.767Z,69.21
2022-11-05T21:23:39.236Z,69.49
2022-11-05T21:26:08.459Z,69.47
2022-11-05T21:28:38.393Z,68.87
2022-11-05T21:31:07.033Z,69.11
2022-11-05T21:33:33.992Z,69.53
2022-11-05T21:36:08.830Z,69.35
2022-11-05T21:38:35.684Z,69.43
2022-11-05T21:41:03.261Z,69.01
2022-11-05T21:43:29.732Z,69.28
2022-11-05T21:45:59.920Z,69.44
2022-11-05T21:48:26.407Z,69.35
2022-11-05T21:51:11.498Z,69.48
2022-11-05T21:53:58.227Z,69.92
2022-11-05T21:56:45.561Z,69.93
2022-11-05T21:59:35.001Z,70.39
2022-11-05T22:02:02.495Z,69.85
2022-11-05T22:04:32.830Z,69.96
2022-11-05T22:06:59.614Z,70.31
2022-11-05T22:09:26.709Z,69.94
2022-11-05T22:11:53.941Z,69.97
2022-11-05T22:14:20.725Z,70.45
2022-11-05T22:16:47.352Z,70.26
2022-11-05T22:19:14.230Z,70.38
2022-11-05T22:21:40.942Z,70.72
2022-11-05T22:24:08.278Z,70.57
2022-11-05T22:26:36.559Z,70.69
2022-11-05T22:29:04.181Z,70.81
2022-11-05T22:31:36.005Z,70.69
2022-11-05T22:34:05.621Z,70.95
2022-11-05T22:36:33.986Z,71.05
2022-11-05T22:39:00.891Z,71.29
2022-11-05T22:41:28.222Z,71.58
2022-11-05T22:43:55.672Z,71.75
2022-11-05T22:46:25.224Z,71.49
2022-11-05T22:48:51.932Z,71.15
2022-11-05T22:51:22.837Z,71.12
2022-11-05T22:53:50.505Z,71.07
2022-11-05T22:56:21.513Z,71.41
2022-11-05T22:58:49.144Z,71.27
2022-11-05T23:01:17.793Z,71.11
2022-11-05T23:03:47.269Z,71.63
2022-11-05T23:06:41.548Z,71.58
2022-11-05T23:09:33.512Z,71.81
2022-11-05T23:12:00.869Z,72.03
2022-11-05T23:14:28.050Z,71.47
2022-11-05T23:17:13.685Z,72.09
2022-11-05T23:19:59.545Z,71.84
2022-11-05T23:22:48.213Z,71.62
2022-11-05T23:25:21.904Z,71.66
2022-11-05T23:27:51.880Z,71.73
2022-11-05T23:30:25.453Z,72.14
2022-11-05T23:32:53.587Z,72.16
2022-11-05T23:35:39.061Z,72.34
2022-11-05T23:38:24.248Z,72.49
2022-11-05T23:41:09.557Z,72.75
2022-11-05T23:43:54.810Z,72.50
2022-11-05T23:46:40.073Z,72.38
2022-11-05T23:49:06.513Z,72.17
2022-11-05T23:51:32.964Z,71.96
2022-11-05T23:53:59.445Z,72.00
2022-11-05T23:56:25.878Z,72.06
2022-11-05T23:58:52.301Z,72.16
